Time;durP1;ratioP1;P1;durP2;ratioP2;P2;SDS_P1;SDS_P2;PMS_P1;PMS_P2;Temp;Humidity;BMP_temperature;BMP_pressure;BME280_temperature;BME280_humidity;BME280_pressure;Samples;Min_cycle;Max_cycle;Signal;HPM_P1;HPM_P2
2021/09/04 00:02:06;;;;;;;;;;;;;;;10.89;75.42;99966.94;5053457;28;957;-58
2021/09/04 00:04:32;;;;;;;;;;;;;;;10.80;75.85;99970.91;5053463;28;806;-58
2021/09/04 00:06:58;;;;;;;;;;;;;;;10.72;76.43;99976.88;5053319;28;794;-58
2021/09/04 00:09:25;;;;;;;;;;;;;;;10.67;76.45;99980.84;5053677;28;822;-58
2021/09/04 00:11:51;;;;;;;;;;;;;;;10.57;76.87;99978.88;5053206;28;845;-58
2021/09/04 00:14:19;;;;;;;;;;;;;;;10.50;76.97;99976.91;5053282;28;850;-58
2021/09/04 00:16:45;;;;;;;;;;;;;;;10.49;76.99;99974.53;5053053;28;1229;-58
2021/09/04 00:19:12;;;;;;;;;;;;;;;10.53;77.40;99975.34;5053151;28;1975;-58
2021/09/04 00:21:39;;;;;;;;;;;;;;;10.56;77.14;99974.53;5053103;28;807;-58
2021/09/04 00:24:06;;;;;;;;;;;;;;;10.60;77.10;99975.31;5053060;28;807;-58
2021/09/04 00:26:32;;;;;;;;;;;;;;;10.60;77.28;99967.81;5052932;28;857;-58
2021/09/04 00:28:58;;;;;;;;;;;;;;;10.59;77.28;99966.22;5053218;28;865;-58
2021/09/04 00:31:25;;;;;;;;;;;;;;;10.59;77.26;99971.75;5053070;28;806;-59
2021/09/04 00:33:52;;;;;;;;;;;;;;;10.60;77.24;99984.41;5053173;28;838;-58
2021/09/04 00:36:18;;;;;;;;;;;;;;;10.58;77.24;99984.03;5053047;28;866;-58
2021/09/04 00:38:45;;;;;;;;;;;;;;;10.54;77.29;99969.41;5053117;28;1945;-58
2021/09/04 00:41:11;;;;;;;;;;;;;;;10.54;77.51;99969.41;5053462;28;759;-59
2021/09/04 00:43:38;;;;;;;;;;;;;;;10.57;77.29;99971.38;5052593;28;921;-58
2021/09/04 00:46:08;;;;;;;;;;;;;;;10.58;77.61;99964.66;5052568;28;874;-59
2021/09/04 00:48:35;;;;;;;;;;;;;;;10.61;77.51;99965.84;5052696;28;823;-58
2021/09/04 00:51:01;;;;;;;;;;;;;;;10.65;77.31;99965.81;5052736;28;814;-58
2021/09/04 00:53:29;;;;;;;;;;;;;;;10.69;77.49;99964.66;5052654;28;877;-58
2021/09/04 00:55:57;;;;;;;;;;;;;;;10.70;77.11;99970.94;5299125;22;3675;-57
2021/09/04 00:58:24;;;;;;;;;;;;;;;10.65;77.14;99972.16;5053010;28;1976;-56
2021/09/04 01:00:54;;;;;;;;;;;;;;;10.62;77.37;99959.13;5053040;28;778;-56
2021/09/04 01:03:21;;;;;;;;;;;;;;;10.62;77.77;99954.41;5052287;28;826;-56
2021/09/04 01:05:47;;;;;;;;;;;;;;;10.67;77.63;99958.72;5052286;28;841;-56
2021/09/04 01:08:14;;;;;;;;;;;;;;;10.68;77.78;99954.75;5052437;28;798;-56
2021/09/04 01:10:41;;;;;;;;;;;;;;;10.67;77.48;99955.97;5052321;28;889;-56
2021/09/04 01:13:08;;;;;;;;;;;;;;;10.65;77.67;99961.09;5052432;28;795;-56
2021/09/04 01:15:36;;;;;;;;;;;;;;;10.65;77.94;99944.50;5052330;28;798;-56
2021/09/04 01:18:04;;;;;;;;;;;;;;;10.67;77.83;99936.63;5052064;28;1893;-56
2021/09/04 01:20:31;;;;;;;;;;;;;;;10.65;77.80;99930.69;5052016;28;822;-56
2021/09/04 01:22:58;;;;;;;;;;;;;;;10.51;77.63;99934.28;5051977;28;833;-56
2021/09/04 01:25:28;;;;;;;;;;;;;;;10.49;78.05;99938.63;5051805;28;886;-56
2021/09/04 01:27:59;;;;;;;;;;;;;;;10.52;78.14;99940.56;5051925;28;846;-57
2021/09/04 01:30:26;;;;;;;;;;;;;;;10.52;77.79;99940.56;5051856;28;861;-56
2021/09/04 01:32:53;;;;;;;;;;;;;;;10.50;78.24;99942.97;5051741;28;814;-56
2021/09/04 01:35:21;;;;;;;;;;;;;;;10.52;78.40;99944.16;5051783;28;869;-56
2021/09/04 01:37:48;;;;;;;;;;;;;;;10.56;78.35;99942.16;5051780;28;1957;-56
2021/09/04 01:40:15;;;;;;;;;;;;;;;10.57;78.29;99943.72;5051696;28;869;-56
2021/09/04 01:42:42;;;;;;;;;;;;;;;10.56;78.45;99953.22;5051661;28;902;-56
2021/09/04 01:45:09;;;;;;;;;;;;;;;10.56;78.35;99957.94;5050377;28;1215;-56
2021/09/04 01:47:36;;;;;;;;;;;;;;;10.53;78.55;99954.00;5051549;28;892;-56
2021/09/04 01:50:03;;;;;;;;;;;;;;;10.59;78.68;99946.09;5051618;28;822;-56
2021/09/04 01:52:30;;;;;;;;;;;;;;;10.60;78.36;99947.66;5051531;28;814;-56
2021/09/04 01:54:56;;;;;;;;;;;;;;;10.60;78.57;99942.13;5051691;28;966;-56
2021/09/04 01:57:23;;;;;;;;;;;;;;;10.61;78.48;99938.97;5051299;28;1985;-56
2021/09/04 01:59:49;;;;;;;;;;;;;;;10.61;78.44;99938.97;5051413;28;889;-56
2021/09/04 02:02:16;;;;;;;;;;;;;;;10.61;78.64;99943.72;5051004;28;881;-56
2021/09/04 02:04:42;;;;;;;;;;;;;;;10.64;78.67;99931.88;5051419;28;854;-56
2021/09/04 02:07:09;;;;;;;;;;;;;;;10.65;78.69;99930.69;5051652;28;817;-57
2021/09/04 02:09:35;;;;;;;;;;;;;;;10.63;78.55;99919.25;5051312;28;864;-56
2021/09/04 02:12:02;;;;;;;;;;;;;;;10.60;78.49;99920.03;5051434;28;861;-56
2021/09/04 02:14:27;;;;;;;;;;;;;;;10.57;78.72;99916.09;5050024;28;1219;-56
2021/09/04 02:16:54;;;;;;;;;;;;;;;10.53;78.69;99920.84;5051360;28;1898;-56
2021/09/04 02:19:20;;;;;;;;;;;;;;;10.46;78.65;99911.81;5051265;28;931;-56
2021/09/04 02:21:47;;;;;;;;;;;;;;;10.42;78.81;99918.09;5051295;28;873;-56
2021/09/04 02:24:13;;;;;;;;;;;;;;;10.40;78.81;99919.69;5051151;28;853;-57
2021/09/04 02:26:40;;;;;;;;;;;;;;;10.39;78.98;99920.88;5051214;28;811;-56
2021/09/04 02:29:07;;;;;;;;;;;;;;;10.38;78.99;99917.31;5051236;28;802;-56
2021/09/04 02:31:34;;;;;;;;;;;;;;;10.39;79.35;99909.81;5051085;28;837;-56
2021/09/04 02:34:00;;;;;;;;;;;;;;;10.43;79.23;99907.84;5051197;28;850;-56
2021/09/04 02:36:28;;;;;;;;;;;;;;;10.44;79.42;99901.13;5051408;28;818;-56
2021/09/04 02:38:55;;;;;;;;;;;;;;;10.47;79.28;99894.81;5051020;28;1881;-56
2021/09/04 02:41:21;;;;;;;;;;;;;;;10.42;78.99;99887.72;5051095;28;805;-56
2021/09/04 02:43:48;;;;;;;;;;;;;;;10.36;79.14;99889.31;5051092;28;803;-56
2021/09/04 02:46:13;;;;;;;;;;;;;;;10.31;79.21;99884.19;5051181;28;893;-56
2021/09/04 02:48:40;;;;;;;;;;;;;;;10.26;79.42;99892.84;5051358;28;793;-56
2021/09/04 02:51:06;;;;;;;;;;;;;;;10.25;79.59;99898.78;5049994;28;1183;-56
2021/09/04 02:53:33;;;;;;;;;;;;;;;10.23;79.75;99890.91;5050971;28;864;-56
2021/09/04 02:55:59;;;;;;;;;;;;;;;10.27;79.89;99894.44;5051244;28;1234;-56
2021/09/04 02:58:27;;;;;;;;;;;;;;;10.29;79.92;99889.34;5050997;28;1914;-56
2021/09/04 03:00:54;;;;;;;;;;;;;;;10.28;79.69;99895.22;5051710;28;806;-56
2021/09/04 03:03:20;;;;;;;;;;;;;;;10.26;79.84;99901.13;5051211;28;786;-56
2021/09/04 03:05:47;;;;;;;;;;;;;;;10.24;79.95;99900.75;5050821;28;833;-56
2021/09/04 03:08:13;;;;;;;;;;;;;;;10.23;80.00;99896.41;5050825;28;853;-56
2021/09/04 03:10:39;;;;;;;;;;;;;;;10.21;79.90;99901.56;5050806;28;786;-56
2021/09/04 03:13:06;;;;;;;;;;;;;;;10.19;80.21;99899.19;5052024;28;822;-56
2021/09/04 03:15:32;;;;;;;;;;;;;;;10.19;80.08;99904.69;5054342;28;797;-56
2021/09/04 03:18:00;;;;;;;;;;;;;;;10.19;80.28;99906.69;5054299;28;1901;-56
2021/09/04 03:20:26;;;;;;;;;;;;;;;10.17;80.62;99898.78;5054264;28;897;-56
2021/09/04 03:22:53;;;;;;;;;;;;;;;10.19;80.74;99898.41;5054321;28;869;-56
2021/09/04 03:25:20;;;;;;;;;;;;;;;10.17;80.51;99904.31;5054157;28;845;-56
2021/09/04 03:27:45;;;;;;;;;;;;;;;10.20;80.80;99908.28;5054062;28;1232;-56
2021/09/04 03:30:13;;;;;;;;;;;;;;;10.29;80.79;99916.97;5054111;28;826;-56
2021/09/04 03:32:39;;;;;;;;;;;;;;;10.37;80.80;99909.44;5052698;28;1319;-57
2021/09/04 03:35:06;;;;;;;;;;;;;;;10.45;80.84;99907.44;5054059;28;850;-56
2021/09/04 03:37:33;;;;;;;;;;;;;;;10.52;80.49;99915.72;5054036;28;1945;-56
2021/09/04 03:39:59;;;;;;;;;;;;;;;10.54;80.38;99921.63;5053931;28;937;-56
2021/09/04 03:42:26;;;;;;;;;;;;;;;10.59;80.22;99915.69;5053869;28;811;-56
2021/09/04 03:44:52;;;;;;;;;;;;;;;10.67;79.96;99917.25;5053855;28;838;-56
2021/09/04 03:47:19;;;;;;;;;;;;;;;10.74;79.44;99902.63;5053809;28;861;-56
2021/09/04 03:49:46;;;;;;;;;;;;;;;10.76;79.53;99909.31;5053929;28;845;-57
2021/09/04 03:52:12;;;;;;;;;;;;;;;10.79;79.51;99902.19;5053560;28;849;-56
2021/09/04 03:54:39;;;;;;;;;;;;;;;10.82;79.20;99913.25;5053845;28;921;-56
2021/09/04 03:57:05;;;;;;;;;;;;;;;10.83;79.18;99902.97;5053237;28;1926;-56
2021/09/04 03:59:31;;;;;;;;;;;;;;;10.81;79.01;99914.41;5053645;28;826;-56
2021/09/04 04:01:58;;;;;;;;;;;;;;;10.81;78.86;99908.88;5053465;28;877;-56
2021/09/04 04:04:25;;;;;;;;;;;;;;;10.85;79.03;99913.63;5053462;28;822;-56
2021/09/04 04:06:51;;;;;;;;;;;;;;;10.93;78.85;99929.00;5053722;28;889;-56
2021/09/04 04:09:18;;;;;;;;;;;;;;;11.03;78.38;99931.72;5053344;28;874;-56
2021/09/04 04:11:45;;;;;;;;;;;;;;;11.10;77.99;99925.38;5053282;28;861;-57
2021/09/04 04:14:11;;;;;;;;;;;;;;;11.13;77.60;99921.00;5053287;28;826;-56
2021/09/04 04:16:38;;;;;;;;;;;;;;;11.10;77.55;99919.06;5053289;28;877;-56
2021/09/04 04:19:05;;;;;;;;;;;;;;;11.06;77.49;99912.75;5053294;28;1956;-56
2021/09/04 04:21:33;;;;;;;;;;;;;;;11.04;77.63;99915.91;5053123;28;818;-56
2021/09/04 04:24:00;;;;;;;;;;;;;;;11.01;77.59;99920.28;5052658;28;873;-56
2021/09/04 04:26:26;;;;;;;;;;;;;;;10.99;77.58;99913.56;5052979;28;814;-56
2021/09/04 04:28:53;;;;;;;;;;;;;;;10.99;77.48;99910.81;5053021;28;874;-56
2021/09/04 04:31:19;;;;;;;;;;;;;;;11.00;77.39;99913.16;5052942;28;841;-56
2021/09/04 04:33:46;;;;;;;;;;;;;;;11.04;77.44;99913.16;5052966;28;826;-56
2021/09/04 04:36:13;;;;;;;;;;;;;;;11.17;77.34;99916.25;5051524;28;889;-56
2021/09/04 04:38:40;;;;;;;;;;;;;;;11.31;77.11;99913.41;5051426;28;1885;-56
2021/09/04 04:41:05;;;;;;;;;;;;;;;11.50;76.44;99908.50;5052738;28;793;-56
2021/09/04 04:43:33;;;;;;;;;;;;;;;11.73;76.07;99907.94;5052657;28;990;-56
2021/09/04 04:46:00;;;;;;;;;;;;;;;11.95;75.70;99912.16;5052727;28;790;-56
2021/09/04 04:48:27;;;;;;;;;;;;;;;12.18;74.45;99921.84;5052661;28;905;-56
2021/09/04 04:50:53;;;;;;;;;;;;;;;12.36;73.86;99918.91;5052461;28;854;-56
2021/09/04 04:53:20;;;;;;;;;;;;;;;12.52;73.71;99916.34;5052460;28;997;-57
2021/09/04 04:55:46;;;;;;;;;;;;;;;12.73;72.86;99912.53;5052279;28;1344;-56
2021/09/04 04:58:12;;;;;;;;;;;;;;;12.97;72.21;99913.44;5051074;28;1971;-56
2021/09/04 05:00:39;;;;;;;;;;;;;;;13.15;71.21;99921.53;5052448;28;810;-56
2021/09/04 05:03:06;;;;;;;;;;;;;;;13.29;70.89;99917.78;5052364;28;798;-56
2021/09/04 05:05:34;;;;;;;;;;;;;;;13.44;70.41;99919.16;5052377;28;805;-56
2021/09/04 05:08:01;;;;;;;;;;;;;;;13.57;69.92;99916.59;5052206;28;874;-56
2021/09/04 05:16:01;;;;;;;;;;;;;;;14.38;66.87;99920.38;5934190;22;1682;-59
2021/09/04 05:18:28;;;;;;;;;;;;;;;14.69;66.54;99921.78;5012367;28;1918;-58
2021/09/04 05:20:54;;;;;;;;;;;;;;;15.16;65.08;99918.03;5012701;28;842;-58
2021/09/04 05:23:20;;;;;;;;;;;;;;;15.45;64.04;99912.63;5012326;28;838;-58
2021/09/04 05:25:47;;;;;;;;;;;;;;;15.52;64.00;99920.81;5012357;28;822;-59
2021/09/04 05:28:14;;;;;;;;;;;;;;;15.75;63.30;99921.13;5012305;28;806;-58
2021/09/04 05:30:40;;;;;;;;;;;;;;;15.97;62.33;99910.22;5012254;28;830;-58
2021/09/04 05:33:06;;;;;;;;;;;;;;;16.13;61.61;99904.66;5010890;28;1295;-58
2021/09/04 05:35:33;;;;;;;;;;;;;;;16.27;61.14;99904.25;5011458;28;795;-58
2021/09/04 05:37:59;;;;;;;;;;;;;;;16.53;60.46;99898.78;5012101;28;1973;-58
2021/09/04 05:40:26;;;;;;;;;;;;;;;16.90;59.49;99891.00;5012108;28;881;-59
2021/09/04 05:42:53;;;;;;;;;;;;;;;17.33;58.28;99889.69;5012095;28;818;-59
2021/09/04 05:45:19;;;;;;;;;;;;;;;17.66;57.38;99875.47;5011952;28;861;-58
2021/09/04 05:47:46;;;;;;;;;;;;;;;17.86;56.43;99881.63;5012022;28;798;-58
2021/09/04 05:50:13;;;;;;;;;;;;;;;18.11;56.25;99877.94;5011997;28;866;-59
2021/09/04 05:52:40;;;;;;;;;;;;;;;18.31;55.62;99886.06;5011923;28;827;-58
2021/09/04 05:55:06;;;;;;;;;;;;;;;18.62;54.82;99884.56;5011913;28;893;-58
2021/09/04 05:57:33;;;;;;;;;;;;;;;19.08;53.66;99891.25;5011838;28;1886;-59
2021/09/04 06:00:00;;;;;;;;;;;;;;;19.67;52.36;99888.53;5011787;28;914;-58
2021/09/04 06:02:27;;;;;;;;;;;;;;;20.51;50.71;99890.19;5011918;28;787;-58
2021/09/04 06:04:54;;;;;;;;;;;;;;;21.50;48.06;99888.88;5011846;28;819;-58
2021/09/04 06:07:20;;;;;;;;;;;;;;;22.00;46.86;99888.47;5011757;28;884;-58
2021/09/04 06:09:46;;;;;;;;;;;;;;;22.55;45.07;99875.97;5011772;28;831;-58
2021/09/04 06:12:13;;;;;;;;;;;;;;;23.38;43.17;99869.44;5011809;28;910;-58
2021/09/04 06:14:40;;;;;;;;;;;;;;;24.11;41.72;99878.16;5011600;28;884;-58
2021/09/04 06:17:06;;;;;;;;;;;;;;;24.63;40.43;99878.25;5034012;28;1910;-59
2021/09/04 06:19:33;;;;;;;;;;;;;;;25.27;39.40;99881.94;5051351;28;833;-59
2021/09/04 06:22:00;;;;;;;;;;;;;;;25.93;37.19;99876.44;5051203;28;830;-58
2021/09/04 06:24:27;;;;;;;;;;;;;;;26.05;36.52;99870.31;5051296;28;885;-59
2021/09/04 06:26:53;;;;;;;;;;;;;;;26.27;36.42;99878.13;5051249;28;954;-59
2021/09/04 06:29:20;;;;;;;;;;;;;;;26.34;35.33;99878.91;5051166;28;858;-59
2021/09/04 06:31:46;;;;;;;;;;;;;;;26.24;35.59;99884.81;5051215;28;865;-59
2021/09/04 06:34:13;;;;;;;;;;;;;;;26.23;35.50;99883.25;5051173;28;967;-59
2021/09/04 06:36:40;;;;;;;;;;;;;;;26.62;35.36;99879.75;5051141;28;866;-59
2021/09/04 06:39:07;;;;;;;;;;;;;;;26.72;34.61;99880.31;5051109;28;2027;-59
2021/09/04 06:41:33;;;;;;;;;;;;;;;26.85;34.23;99865.63;5051159;28;873;-59
2021/09/04 06:43:59;;;;;;;;;;;;;;;26.93;34.16;99866.66;5050957;28;862;-59
2021/09/04 06:46:31;;;;;;;;;;;;;;;26.98;33.69;99873.63;5051489;28;837;-59
2021/09/04 06:49:00;;;;;;;;;;;;;;;27.17;33.19;99874.66;5054884;28;815;-59
2021/09/04 06:51:27;;;;;;;;;;;;;;;27.44;32.96;99873.09;5054826;28;814;-59
2021/09/04 06:53:53;;;;;;;;;;;;;;;27.77;32.48;99871.47;5055110;28;841;-59
2021/09/04 06:56:20;;;;;;;;;;;;;;;27.69;32.64;99873.28;5054779;28;846;-59
2021/09/04 06:58:46;;;;;;;;;;;;;;;27.67;32.72;99870.19;5054597;28;1941;-59
2021/09/04 07:01:13;;;;;;;;;;;;;;;27.40;32.80;99869.75;5054717;28;846;-59
2021/09/04 07:03:40;;;;;;;;;;;;;;;27.30;33.07;99877.00;5054635;28;806;-59
2021/09/04 07:06:08;;;;;;;;;;;;;;;27.52;32.66;99873.34;5054540;28;799;-59
2021/09/04 07:08:34;;;;;;;;;;;;;;;27.54;32.31;99884.19;5054588;28;834;-59
2021/09/04 07:11:01;;;;;;;;;;;;;;;27.39;32.33;99884.47;5054664;28;869;-59
2021/09/04 07:13:27;;;;;;;;;;;;;;;27.79;31.97;99885.91;5054507;28;888;-59
2021/09/04 07:15:53;;;;;;;;;;;;;;;28.32;31.17;99885.25;5054357;28;1391;-59
2021/09/04 07:18:20;;;;;;;;;;;;;;;28.66;30.38;99885.84;5054587;28;1983;-60
2021/09/04 07:20:47;;;;;;;;;;;;;;;29.18;29.99;99887.00;5054302;28;861;-59
2021/09/04 07:23:14;;;;;;;;;;;;;;;29.46;29.38;99881.81;5054293;28;801;-59
2021/09/04 07:25:40;;;;;;;;;;;;;;;29.28;29.37;99885.38;5054294;28;802;-59
2021/09/04 07:28:07;;;;;;;;;;;;;;;28.96;29.72;99873.72;5054131;28;810;-59
2021/09/04 07:30:34;;;;;;;;;;;;;;;28.36;29.44;99888.53;5054219;28;853;-59
2021/09/04 07:33:00;;;;;;;;;;;;;;;28.15;29.81;99873.94;5054428;28;861;-59
2021/09/04 07:35:27;;;;;;;;;;;;;;;28.65;29.16;99876.50;5053973;28;836;-59
2021/09/04 07:37:53;;;;;;;;;;;;;;;28.64;29.09;99869.28;5053970;28;1955;-59
2021/09/04 07:40:20;;;;;;;;;;;;;;;28.37;29.21;99873.06;5053923;28;826;-59
2021/09/04 07:42:47;;;;;;;;;;;;;;;28.42;29.66;99872.25;5053860;28;829;-59
2021/09/04 07:45:14;;;;;;;;;;;;;;;28.58;28.86;99871.41;5053853;28;829;-59
2021/09/04 07:47:41;;;;;;;;;;;;;;;28.50;29.68;99874.03;5053765;28;864;-59
2021/09/04 07:50:08;;;;;;;;;;;;;;;28.74;29.46;99869.72;5053907;28;888;-59
2021/09/04 07:52:34;;;;;;;;;;;;;;;28.95;28.96;99866.47;5053733;28;866;-59
2021/09/04 07:55:02;;;;;;;;;;;;;;;28.91;28.92;99859.03;5053737;28;868;-59
2021/09/04 07:57:28;;;;;;;;;;;;;;;29.11;28.61;99855.00;5052246;28;1894;-59
2021/09/04 07:59:56;;;;;;;;;;;;;;;28.97;28.79;99850.41;5052913;28;826;-59
2021/09/04 08:02:23;;;;;;;;;;;;;;;28.75;29.11;99845.69;5053554;28;853;-59
2021/09/04 08:04:50;;;;;;;;;;;;;;;28.87;28.72;99847.16;5053458;28;838;-59
2021/09/04 08:07:16;;;;;;;;;;;;;;;28.78;28.61;99847.47;5053474;28;857;-59
2021/09/04 08:09:43;;;;;;;;;;;;;;;28.92;28.54;99849.16;5053842;28;814;-59
2021/09/04 08:12:10;;;;;;;;;;;;;;;28.90;28.58;99851.78;5053473;28;798;-59
2021/09/04 08:14:36;;;;;;;;;;;;;;;29.07;28.61;99854.47;5053432;28;995;-59
2021/09/04 08:17:03;;;;;;;;;;;;;;;28.94;28.38;99850.72;5053262;28;1365;-59
2021/09/04 08:19:29;;;;;;;;;;;;;;;28.60;29.44;99843.22;5053584;28;1910;-59
2021/09/04 08:21:58;;;;;;;;;;;;;;;28.46;29.50;99842.25;5053839;28;854;-59
2021/09/04 08:24:24;;;;;;;;;;;;;;;28.28;29.30;99848.56;5053256;28;791;-59
2021/09/04 08:26:51;;;;;;;;;;;;;;;28.67;29.03;99834.09;5053318;28;842;-59
2021/09/04 08:29:19;;;;;;;;;;;;;;;29.04;28.64;99832.00;5053280;28;854;-59
2021/09/04 08:31:46;;;;;;;;;;;;;;;29.25;27.83;99835.19;5053175;28;842;-59
2021/09/04 08:34:13;;;;;;;;;;;;;;;29.02;28.41;99837.44;5053185;28;825;-59
2021/09/04 08:36:39;;;;;;;;;;;;;;;28.99;28.70;99839.28;5053046;28;839;-59
2021/09/04 08:39:05;;;;;;;;;;;;;;;29.39;28.28;99836.09;5052956;28;1894;-59
2021/09/04 08:41:32;;;;;;;;;;;;;;;29.63;27.57;99843.88;5053170;28;842;-59
2021/09/04 08:43:58;;;;;;;;;;;;;;;29.58;27.80;99834.09;5051416;28;1290;-59
2021/09/04 08:46:31;;;;;;;;;;;;;;;29.48;27.92;99830.03;5052628;28;790;-59
2021/09/04 08:48:59;;;;;;;;;;;;;;;29.97;27.57;99824.31;5052699;28;845;-59
2021/09/04 08:51:26;;;;;;;;;;;;;;;30.16;26.73;99826.41;5052573;28;846;-59
2021/09/04 08:53:52;;;;;;;;;;;;;;;30.15;27.30;99825.63;5052544;28;809;-59
2021/09/04 08:56:19;;;;;;;;;;;;;;;30.17;26.22;99831.56;5052531;28;846;-59
2021/09/04 08:58:46;;;;;;;;;;;;;;;29.74;26.75;99823.81;5052608;28;1893;-59
2021/09/04 09:01:16;;;;;;;;;;;;;;;29.43;26.92;99817.41;5052355;28;852;-59
2021/09/04 09:03:44;;;;;;;;;;;;;;;29.82;26.64;99818.28;5051126;28;1216;-59
2021/09/04 09:06:11;;;;;;;;;;;;;;;29.90;26.40;99819.22;5052316;28;856;-59
2021/09/04 09:08:46;;;;;;;;;;;;;;;29.78;26.63;99814.97;5050924;28;1294;-59
2021/09/04 09:11:13;;;;;;;;;;;;;;;29.49;26.68;99823.81;5052317;28;873;-59
2021/09/04 09:13:50;;;;;;;;;;;;;;;29.54;27.32;99819.38;5050780;28;1407;-59
2021/09/04 09:16:18;;;;;;;;;;;;;;;29.92;26.33;99822.31;5052237;28;1201;-59
2021/09/04 09:19:00;;;;;;;;;;;;;;;29.76;26.76;99824.06;5052107;28;1922;-59
2021/09/04 09:21:31;;;;;;;;;;;;;;;28.80;28.00;99830.66;5052324;28;849;-59
2021/09/04 09:24:09;;;;;;;;;;;;;;;28.76;28.05;99820.88;5051985;28;794;-59
2021/09/04 09:26:44;;;;;;;;;;;;;;;28.97;27.28;99824.06;5052052;28;794;-59
2021/09/04 09:29:21;;;;;;;;;;;;;;;28.58;27.69;99813.78;5051880;28;877;-59
2021/09/04 09:31:48;;;;;;;;;;;;;;;28.58;27.97;99820.22;5051867;28;920;-59
2021/09/04 09:34:15;;;;;;;;;;;;;;;28.44;27.96;99816.44;5051881;28;873;-59
2021/09/04 09:36:55;;;;;;;;;;;;;;;28.04;28.55;99806.59;5050528;28;1199;-59
2021/09/04 09:39:32;;;;;;;;;;;;;;;27.86;29.23;99805.88;5051587;28;1969;-59
2021/09/04 09:41:59;;;;;;;;;;;;;;;27.93;29.92;99801.75;5051577;28;826;-59
2021/09/04 09:44:28;;;;;;;;;;;;;;;28.41;28.32;99799.66;5051699;28;912;-59
2021/09/04 09:46:58;;;;;;;;;;;;;;;29.46;27.71;99793.56;5051797;28;818;-60
2021/09/04 09:49:26;;;;;;;;;;;;;;;29.68;26.98;99795.41;5051628;28;794;-59
2021/09/04 09:51:55;;;;;;;;;;;;;;;29.66;26.52;99792.31;5052204;28;806;-59
2021/09/04 09:54:23;;;;;;;;;;;;;;;29.81;26.54;99786.19;5051879;28;919;-60
2021/09/04 09:56:50;;;;;;;;;;;;;;;30.38;25.55;99783.34;5051558;28;869;-59
2021/09/04 09:59:18;;;;;;;;;;;;;;;29.55;26.36;99780.28;5051414;28;1877;-59
2021/09/04 10:01:44;;;;;;;;;;;;;;;29.02;27.26;99772.81;5051529;28;874;-59
2021/09/04 10:04:11;;;;;;;;;;;;;;;28.78;27.65;99776.38;5050071;28;1406;-59
2021/09/04 10:06:38;;;;;;;;;;;;;;;29.04;27.55;99781.56;5051501;28;799;-59
2021/09/04 10:09:05;;;;;;;;;;;;;;;29.77;26.37;99787.81;5051409;28;798;-59
2021/09/04 10:11:35;;;;;;;;;;;;;;;30.40;25.51;99786.41;5051359;28;814;-60
2021/09/04 10:14:01;;;;;;;;;;;;;;;30.98;24.44;99782.09;5051349;28;794;-60
2021/09/04 10:16:28;;;;;;;;;;;;;;;31.24;24.31;99787.09;5049971;28;1413;-60
2021/09/04 10:18:56;;;;;;;;;;;;;;;31.13;23.97;99781.56;5051318;28;1981;-60
2021/09/04 10:21:25;;;;;;;;;;;;;;;30.78;24.34;99780.63;5051396;28;881;-60
2021/09/04 10:23:53;;;;;;;;;;;;;;;30.43;25.17;99785.34;5054082;28;889;-59
2021/09/04 10:26:22;;;;;;;;;;;;;;;30.52;25.14;99776.38;5055274;28;842;-60
2021/09/04 10:28:57;;;;;;;;;;;;;;;30.89;23.82;99780.44;5055305;28;933;-60
2021/09/04 10:31:42;;;;;;;;;;;;;;;30.94;24.08;99770.28;5055155;28;877;-60
2021/09/04 10:34:17;;;;;;;;;;;;;;;31.59;23.47;99770.84;5055216;28;893;-60
2021/09/04 10:36:59;;;;;;;;;;;;;;;31.73;23.06;99763.81;5055192;28;814;-59
2021/09/04 10:39:45;;;;;;;;;;;;;;;31.87;22.83;99764.53;5054928;28;1973;-59
2021/09/04 10:42:15;;;;;;;;;;;;;;;31.36;23.17;99764.78;5041372;28;1196;-59
2021/09/04 10:44:43;;;;;;;;;;;;;;;30.35;24.59;99783.66;5054915;28;876;-59
2021/09/04 10:47:10;;;;;;;;;;;;;;;29.66;24.89;99797.22;5054989;28;814;-59
2021/09/04 10:49:40;;;;;;;;;;;;;;;28.90;25.91;99782.75;5054842;28;798;-59
2021/09/04 10:52:08;;;;;;;;;;;;;;;28.60;26.39;99771.38;5054990;28;878;-60
2021/09/04 10:54:52;;;;;;;;;;;;;;;28.46;26.75;99779.72;5054880;28;922;-59
2021/09/04 10:57:19;;;;;;;;;;;;;;;28.38;27.29;99778.75;5054948;28;1955;-59
2021/09/04 11:00:04;;;;;;;;;;;;;;;28.45;27.21;99780.25;5054698;28;802;-59
2021/09/04 11:02:40;;;;;;;;;;;;;;;28.41;27.11;99779.75;5054621;28;845;-59
2021/09/04 11:05:42;;;;;;;;;;;;;;;28.07;27.48;99775.06;5054677;28;861;-59
2021/09/04 11:08:13;;;;;;;;;;;;;;;27.48;28.49;99774.28;4973673;28;1293;-59
2021/09/04 11:10:41;;;;;;;;;;;;;;;26.91;29.29;99775.66;4973668;28;949;-59
2021/09/04 11:13:08;;;;;;;;;;;;;;;26.52;29.73;99770.72;4973953;28;897;-59
2021/09/04 11:15:34;;;;;;;;;;;;;;;26.51;29.67;99777.69;4973507;28;1066;-59
2021/09/04 11:18:01;;;;;;;;;;;;;;;26.63;30.09;99775.69;4973478;28;1989;-59
2021/09/04 11:20:28;;;;;;;;;;;;;;;26.70;29.92;99777.22;4973744;28;906;-59
2021/09/04 11:22:54;;;;;;;;;;;;;;;26.86;29.75;99771.56;4973670;28;1058;-59
2021/09/04 11:25:21;;;;;;;;;;;;;;;26.77;29.69;99765.38;4973980;28;775;-59
2021/09/04 11:27:47;;;;;;;;;;;;;;;26.92;29.64;99768.69;4973552;28;815;-59
2021/09/04 11:30:17;;;;;;;;;;;;;;;27.09;29.28;99760.94;4973379;28;1308;-59
2021/09/04 11:32:44;;;;;;;;;;;;;;;27.28;28.75;99766.09;4972931;28;799;-59
2021/09/04 11:35:11;;;;;;;;;;;;;;;27.41;28.93;99754.19;4972441;28;1069;-59
2021/09/04 11:37:41;;;;;;;;;;;;;;;27.31;29.03;99753.69;4973371;28;1947;-59
2021/09/04 11:40:12;;;;;;;;;;;;;;;27.77;28.82;99749.38;4972984;28;807;-59
2021/09/04 11:42:39;;;;;;;;;;;;;;;27.88;28.21;99751.41;5032380;28;946;-59
2021/09/04 11:45:09;;;;;;;;;;;;;;;27.73;28.21;99748.88;5053848;28;885;-59
2021/09/04 11:47:37;;;;;;;;;;;;;;;27.98;28.60;99746.97;5053836;28;877;-59
2021/09/04 11:50:07;;;;;;;;;;;;;;;28.30;28.24;99737.97;5053735;28;877;-59
2021/09/04 11:52:35;;;;;;;;;;;;;;;29.42;27.36;99736.16;5053716;28;877;-59
2021/09/04 11:55:19;;;;;;;;;;;;;;;31.16;25.36;99734.06;5053718;28;837;-59
2021/09/04 11:57:50;;;;;;;;;;;;;;;31.23;24.35;99734.16;5052161;28;1886;-59
2021/09/04 12:00:18;;;;;;;;;;;;;;;30.86;24.83;99729.41;5053621;28;822;-59
2021/09/04 12:02:46;;;;;;;;;;;;;;;30.69;25.02;99730.47;5053467;28;822;-59
2021/09/04 12:05:14;;;;;;;;;;;;;;;30.93;24.68;99737.34;5053526;28;849;-59
2021/09/04 12:07:41;;;;;;;;;;;;;;;30.54;24.68;99733.06;5053520;28;1013;-59
2021/09/04 12:10:08;;;;;;;;;;;;;;;30.20;25.07;99735.66;5053635;28;842;-59
2021/09/04 12:12:36;;;;;;;;;;;;;;;29.73;25.09;99733.22;5053414;28;889;-59
2021/09/04 12:15:03;;;;;;;;;;;;;;;29.38;25.65;99730.03;5053608;28;896;-59
2021/09/04 12:17:31;;;;;;;;;;;;;;;28.86;25.75;99731.06;5053357;28;1971;-59
2021/09/04 12:20:08;;;;;;;;;;;;;;;28.65;26.34;99731.50;5053409;28;850;-59
2021/09/04 12:22:35;;;;;;;;;;;;;;;28.75;26.50;99728.34;5053165;28;790;-59
2021/09/04 12:25:01;;;;;;;;;;;;;;;28.62;26.98;99720.44;5053392;28;889;-59
2021/09/04 12:27:40;;;;;;;;;;;;;;;28.29;28.30;99711.63;5053060;28;830;-59
2021/09/04 12:30:08;;;;;;;;;;;;;;;27.83;29.48;99712.44;5053101;28;1023;-59
2021/09/04 12:32:36;;;;;;;;;;;;;;;27.58;29.51;99714.38;5051670;28;1187;-59
2021/09/04 12:35:03;;;;;;;;;;;;;;;27.58;29.97;99717.97;5053157;28;857;-59
2021/09/04 12:37:31;;;;;;;;;;;;;;;27.57;30.17;99698.63;5052796;28;1885;-59
2021/09/04 12:40:12;;;;;;;;;;;;;;;27.47;30.71;99713.13;5053060;28;890;-59
2021/09/04 12:42:39;;;;;;;;;;;;;;;27.16;30.84;99711.44;5052728;28;815;-59
2021/09/04 12:45:18;;;;;;;;;;;;;;;27.06;31.22;99708.09;5052404;28;786;-59
2021/09/04 12:47:47;;;;;;;;;;;;;;;26.95;31.99;99710.97;5052769;28;904;-59
2021/09/04 12:50:24;;;;;;;;;;;;;;;26.93;31.87;99716.38;5052606;28;830;-59
2021/09/04 12:53:06;;;;;;;;;;;;;;;26.76;32.79;99709.97;5052861;28;877;-59
2021/09/04 12:55:50;;;;;;;;;;;;;;;26.78;32.92;99713.03;5052533;28;888;-58
2021/09/04 12:58:17;;;;;;;;;;;;;;;26.92;33.11;99708.38;5052382;28;1890;-59
2021/09/04 13:00:43;;;;;;;;;;;;;;;26.59;33.57;99713.59;5052450;28;834;-59
2021/09/04 13:03:10;;;;;;;;;;;;;;;26.24;34.48;99720.53;5052333;28;920;-59
2021/09/04 13:05:36;;;;;;;;;;;;;;;26.03;34.48;99722.00;5052357;28;881;-59
2021/09/04 13:08:03;;;;;;;;;;;;;;;25.91;34.94;99726.88;5052204;28;845;-59
2021/09/04 13:10:32;;;;;;;;;;;;;;;25.82;35.38;99713.72;5052291;28;965;-59
2021/09/04 13:12:59;;;;;;;;;;;;;;;25.91;35.43;99720.47;5052161;28;888;-59
2021/09/04 13:15:25;;;;;;;;;;;;;;;26.01;35.06;99718.91;5052457;28;1013;-59